createdAt,value
2022-11-22T00:00:41.300Z, 31.94
2022-11-22T00:01:41.350Z, 31.90
2022-11-22T00:02:41.299Z, 31.89
2022-11-22T00:03:41.301Z, 31.86
2022-11-22T00:04:41.363Z, 31.84
2022-11-22T00:05:41.358Z, 31.81
2022-11-22T00:06:41.372Z, 31.79
2022-11-22T00:07:41.435Z, 31.75
2022-11-22T00:08:41.356Z, 31.72
2022-11-22T00:09:41.381Z, 31.66
2022-11-22T00:10:41.363Z, 31.65
2022-11-22T00:11:41.367Z, 31.61
2022-11-22T00:12:41.455Z, 31.59
2022-11-22T00:13:41.458Z, 31.56
2022-11-22T00:14:41.440Z, 31.53
2022-11-22T00:15:41.490Z, 31.50
2022-11-22T00:16:41.534Z, 31.49
2022-11-22T00:17:41.528Z, 31.48
2022-11-22T00:18:41.496Z, 31.46
2022-11-22T00:19:41.560Z, 31.42
2022-11-22T00:20:41.529Z, 31.39
2022-11-22T00:21:41.523Z, 31.35
2022-11-22T00:22:44.484Z, 31.32
2022-11-22T00:23:41.553Z, 31.30
2022-11-22T00:24:41.579Z, 31.31
2022-11-22T00:25:41.645Z, 31.29
2022-11-22T00:26:41.625Z, 31.27
2022-11-22T00:27:41.625Z, 31.23
2022-11-22T00:28:41.619Z, 31.22
2022-11-22T00:29:41.626Z, 31.20
2022-11-22T00:30:41.634Z, 31.18
2022-11-22T00:31:41.662Z, 31.15
2022-11-22T00:32:41.731Z, 31.14
2022-11-22T00:33:41.709Z, 31.12
2022-11-22T00:34:41.743Z, 31.10
2022-11-22T00:35:41.780Z, 31.06
2022-11-22T00:36:41.743Z, 31.04
2022-11-22T00:37:41.735Z, 31.00
2022-11-22T00:38:41.729Z, 30.98
2022-11-22T00:39:41.747Z, 30.96
2022-11-22T00:40:41.751Z, 30.93
2022-11-22T00:41:41.786Z, 30.93
2022-11-22T00:42:41.841Z, 30.91
2022-11-22T00:43:41.826Z, 30.88
2022-11-22T00:44:41.831Z, 30.88
2022-11-22T00:45:41.816Z, 30.82
2022-11-22T00:46:41.813Z, 30.80
2022-11-22T00:47:41.829Z, 30.80
2022-11-22T00:48:41.855Z, 30.77
2022-11-22T00:49:41.862Z, 30.74
2022-11-22T00:50:41.868Z, 30.75
2022-11-22T00:51:41.873Z, 30.75
2022-11-22T00:52:41.970Z, 30.70
2022-11-22T00:53:41.986Z, 30.67
2022-11-22T00:54:42.007Z, 30.64
2022-11-22T00:55:41.959Z, 30.64
2022-11-22T00:56:42.008Z, 30.62
2022-11-22T00:57:42.002Z, 30.61
2022-11-22T00:58:42.043Z, 30.58
2022-11-22T00:59:42.013Z, 30.58
2022-11-22T01:00:42.039Z, 30.55
2022-11-22T01:01:42.233Z, 30.52
2022-11-22T01:02:42.061Z, 30.50
2022-11-22T01:03:42.061Z, 30.48
2022-11-22T01:04:42.058Z, 30.46
2022-11-22T01:05:42.073Z, 30.44
2022-11-22T01:06:42.073Z, 30.41
2022-11-22T01:07:42.157Z, 30.40
2022-11-22T01:08:42.164Z, 30.38
2022-11-22T01:09:42.163Z, 30.34
2022-11-22T01:10:42.183Z, 30.34
2022-11-22T01:11:42.199Z, 30.31
2022-11-22T01:12:42.216Z, 30.28
2022-11-22T01:13:42.199Z, 30.24
2022-11-22T01:14:42.195Z, 30.23
2022-11-22T01:15:42.191Z, 30.23
2022-11-22T01:16:42.266Z, 30.22
2022-11-22T01:17:42.239Z, 30.20
2022-11-22T01:18:42.241Z, 30.16
2022-11-22T01:19:42.245Z, 30.13
2022-11-22T01:20:42.233Z, 30.11
2022-11-22T01:21:42.336Z, 30.12
2022-11-22T01:22:42.359Z, 30.12
2022-11-22T01:23:42.345Z, 30.10
2022-11-22T01:24:42.337Z, 30.08
2022-11-22T01:25:42.323Z, 30.09
2022-11-22T01:26:42.324Z, 30.07
2022-11-22T01:27:42.379Z, 30.05
2022-11-22T01:28:42.380Z, 30.01
2022-11-22T01:29:42.389Z, 29.99
2022-11-22T01:30:42.394Z, 29.98
2022-11-22T01:31:42.390Z, 29.98
2022-11-22T01:32:42.417Z, 29.95
2022-11-22T01:33:42.423Z, 29.92
2022-11-22T01:34:42.508Z, 29.91
2022-11-22T01:35:42.418Z, 29.90
2022-11-22T01:36:42.425Z, 29.87
2022-11-22T01:37:42.426Z, 29.87
2022-11-22T01:38:42.446Z, 29.85
2022-11-22T01:39:42.533Z, 29.82
2022-11-22T01:40:42.527Z, 29.80
2022-11-22T01:41:42.525Z, 29.78
2022-11-22T01:42:42.521Z, 29.78
2022-11-22T01:43:42.577Z, 29.76
2022-11-22T01:44:42.608Z, 29.73
2022-11-22T01:45:42.609Z, 29.72
2022-11-22T01:46:42.627Z, 29.70
2022-11-22T01:47:42.598Z, 29.72
2022-11-22T01:48:42.597Z, 29.71
2022-11-22T01:49:42.654Z, 29.69
2022-11-22T01:50:42.660Z, 29.66
2022-11-22T01:51:42.645Z, 29.66
2022-11-22T01:52:42.646Z, 29.62
2022-11-22T01:53:42.645Z, 29.60
2022-11-22T01:54:42.656Z, 29.59
2022-11-22T01:55:42.637Z, 29.59
2022-11-22T01:56:42.652Z, 29.57
2022-11-22T01:57:42.669Z, 29.58
2022-11-22T01:58:42.672Z, 29.54
2022-11-22T01:59:42.682Z, 29.53
2022-11-22T02:00:42.829Z, 29.52
2022-11-22T02:01:42.859Z, 29.53
2022-11-22T02:02:42.744Z, 29.52
2022-11-22T02:03:42.746Z, 29.50
2022-11-22T02:04:42.821Z, 29.48
2022-11-22T02:05:42.771Z, 29.47
2022-11-22T02:06:42.802Z, 29.45
2022-11-22T02:07:42.843Z, 29.46
2022-11-22T02:08:42.816Z, 29.46
2022-11-22T02:09:42.838Z, 29.44
2022-11-22T02:10:42.908Z, 29.43
2022-11-22T02:11:42.904Z, 29.41
2022-11-22T02:12:42.872Z, 29.39
2022-11-22T02:13:42.871Z, 29.37
2022-11-22T02:14:42.872Z, 29.35
2022-11-22T02:15:42.938Z, 29.32
2022-11-22T02:16:42.895Z, 29.30
2022-11-22T02:17:42.894Z, 29.29
2022-11-22T02:18:42.943Z, 29.28
2022-11-22T02:19:43.010Z, 29.26
2022-11-22T02:20:42.978Z, 29.25
2022-11-22T02:21:43.000Z, 29.24
2022-11-22T02:22:42.974Z, 29.22
2022-11-22T02:23:42.965Z, 29.18
2022-11-22T02:24:43.014Z, 29.18
2022-11-22T02:25:43.008Z, 29.17
2022-11-22T02:26:43.089Z, 29.16
2022-11-22T02:27:43.070Z, 29.16
2022-11-22T02:28:43.054Z, 29.16
2022-11-22T02:29:43.060Z, 29.17
2022-11-22T02:30:43.076Z, 29.17
2022-11-22T02:31:43.105Z, 29.13
2022-11-22T02:32:43.126Z, 29.11
2022-11-22T02:33:43.151Z, 29.11
2022-11-22T02:34:43.145Z, 29.09
2022-11-22T02:35:43.153Z, 29.07
2022-11-22T02:36:43.228Z, 29.08
2022-11-22T02:37:43.205Z, 29.06
2022-11-22T02:38:43.218Z, 29.05
2022-11-22T02:39:43.253Z, 29.06
2022-11-22T02:40:43.256Z, 29.04
2022-11-22T02:41:43.250Z, 29.01
2022-11-22T02:42:43.246Z, 28.97
2022-11-22T02:43:43.260Z, 28.98
2022-11-22T02:44:43.306Z, 28.98
2022-11-22T02:45:43.299Z, 28.94
2022-11-22T02:46:43.300Z, 28.91
2022-11-22T02:47:43.347Z, 28.89
2022-11-22T02:48:43.368Z, 28.87
2022-11-22T02:49:43.406Z, 28.85
2022-11-22T02:50:43.429Z, 28.84
2022-11-22T02:51:43.412Z, 28.84
2022-11-22T02:52:43.420Z, 28.84
2022-11-22T02:53:43.396Z, 28.84
2022-11-22T02:54:43.388Z, 28.82
2022-11-22T02:55:43.397Z, 28.79
2022-11-22T02:56:43.474Z, 28.79
2022-11-22T02:57:43.446Z, 28.77
2022-11-22T02:58:43.436Z, 28.76
2022-11-22T02:59:43.439Z, 28.75
2022-11-22T03:00:43.486Z, 28.74
2022-11-22T03:01:43.471Z, 28.75
2022-11-22T03:02:43.465Z, 28.74
2022-11-22T03:03:43.470Z, 28.71
2022-11-22T03:04:43.526Z, 28.68
2022-11-22T03:05:43.584Z, 28.65
2022-11-22T03:06:43.592Z, 28.65
2022-11-22T03:07:43.671Z, 28.64
2022-11-22T03:08:43.562Z, 28.63
2022-11-22T03:09:43.600Z, 28.63
2022-11-22T03:10:43.568Z, 28.61
2022-11-22T03:11:43.577Z, 28.60
2022-11-22T03:12:43.563Z, 28.58
2022-11-22T03:13:43.631Z, 28.57
2022-11-22T03:14:43.619Z, 28.55
2022-11-22T03:15:43.634Z, 28.55
2022-11-22T03:16:43.625Z, 28.55
2022-11-22T03:17:43.629Z, 28.54
2022-11-22T03:18:43.726Z, 28.51
2022-11-22T03:19:43.721Z, 28.49
2022-11-22T03:20:43.713Z, 28.49
2022-11-22T03:21:43.733Z, 28.50
2022-11-22T03:22:43.763Z, 28.49
2022-11-22T03:23:43.732Z, 28.48
2022-11-22T03:24:43.730Z, 28.46
2022-11-22T03:25:43.727Z, 28.45
2022-11-22T03:26:43.751Z, 28.44
2022-11-22T03:27:43.749Z, 28.43
2022-11-22T03:28:43.773Z, 28.44
2022-11-22T03:29:43.784Z, 28.43
2022-11-22T03:30:43.811Z, 28.41
2022-11-22T03:31:43.885Z, 28.43
2022-11-22T03:32:43.856Z, 28.41
2022-11-22T03:33:43.904Z, 28.38
2022-11-22T03:34:43.889Z, 28.36
2022-11-22T03:35:43.930Z, 28.38
2022-11-22T03:36:43.881Z, 28.36
2022-11-22T03:37:43.873Z, 28.34
2022-11-22T03:38:43.890Z, 28.34
2022-11-22T03:39:43.962Z, 28.33
2022-11-22T03:40:44.000Z, 28.31
2022-11-22T03:41:43.976Z, 28.29
2022-11-22T03:42:43.967Z, 28.28
2022-11-22T03:43:44.038Z, 28.27
2022-11-22T03:44:44.002Z, 28.25
2022-11-22T03:45:43.991Z, 28.23
2022-11-22T03:46:44.015Z, 28.24
2022-11-22T03:47:44.032Z, 28.23
2022-11-22T03:48:44.031Z, 28.23
2022-11-22T03:49:44.048Z, 28.23
2022-11-22T03:50:44.129Z, 28.25
2022-11-22T03:51:44.082Z, 28.25
2022-11-22T03:52:44.091Z, 28.25
2022-11-22T03:53:44.096Z, 28.23
2022-11-22T03:54:44.184Z, 28.19
2022-11-22T03:55:44.167Z, 28.21
2022-11-22T03:56:44.168Z, 28.22
2022-11-22T03:57:44.218Z, 28.24
2022-11-22T03:58:44.200Z, 28.20
2022-11-22T03:59:44.192Z, 28.16
2022-11-22T04:00:44.198Z, 28.13
2022-11-22T04:01:44.360Z, 28.13
2022-11-22T04:02:44.284Z, 28.13
2022-11-22T04:03:44.311Z, 28.13
2022-11-22T04:04:44.253Z, 28.12
2022-11-22T04:05:44.251Z, 28.11
2022-11-22T04:06:44.243Z, 28.08
2022-11-22T04:07:44.343Z, 28.06
2022-11-22T04:08:44.361Z, 28.05
2022-11-22T04:09:44.289Z, 28.05
2022-11-22T04:10:44.337Z, 28.02
2022-11-22T04:11:44.323Z, 28.02
2022-11-22T04:12:44.318Z, 28.04
2022-11-22T04:13:44.361Z, 28.06
2022-11-22T04:14:44.354Z, 28.04
2022-11-22T04:15:44.370Z, 28.04
2022-11-22T04:16:44.445Z, 28.03
2022-11-22T04:17:44.454Z, 28.02
2022-11-22T04:18:44.429Z, 28.04
2022-11-22T04:19:44.442Z, 28.04
2022-11-22T04:20:44.483Z, 28.02
2022-11-22T04:21:44.491Z, 27.99
2022-11-22T04:22:44.453Z, 27.98
2022-11-22T04:23:44.469Z, 27.95
2022-11-22T04:24:44.466Z, 27.94
2022-11-22T04:25:44.476Z, 27.92
2022-11-22T04:26:44.554Z, 27.91
2022-11-22T04:27:44.537Z, 27.90
2022-11-22T04:29:08.786Z, 27.91
2022-11-22T04:29:44.539Z, 27.91
2022-11-22T04:30:44.569Z, 27.90
2022-11-22T04:31:44.555Z, 28.59
2022-11-22T04:32:44.634Z, 29.15
2022-11-22T04:33:44.621Z, 33.75
2022-11-22T04:34:44.620Z, 39.54
2022-11-22T04:35:44.654Z, 43.00
2022-11-22T04:36:44.626Z, 41.72
2022-11-22T04:37:44.626Z, 39.70
2022-11-22T04:38:44.700Z, 37.67
2022-11-22T04:39:44.699Z, 35.86
2022-11-22T04:40:44.695Z, 34.34
2022-11-22T04:41:44.701Z, 33.28
2022-11-22T04:42:44.685Z, 32.34
2022-11-22T04:43:44.704Z, 31.32
2022-11-22T04:44:44.728Z, 30.19
2022-11-22T04:45:44.748Z, 29.04
2022-11-22T04:46:44.733Z, 27.97
2022-11-22T04:47:47.584Z, 29.08
2022-11-22T04:48:44.768Z, 34.68
2022-11-22T04:49:44.768Z, 39.51
2022-11-22T04:50:44.852Z, 42.46
2022-11-22T04:51:44.819Z, 41.52
2022-11-22T04:52:44.814Z, 39.27
2022-11-22T04:53:44.813Z, 37.35
2022-11-22T04:54:44.814Z, 35.40
2022-11-22T04:55:44.913Z, 33.66
2022-11-22T04:56:44.887Z, 32.33
2022-11-22T04:57:44.894Z, 31.05
2022-11-22T04:58:44.918Z, 29.43
2022-11-22T04:59:44.920Z, 27.69
2022-11-22T05:00:44.937Z, 27.59
2022-11-22T05:01:44.913Z, 27.80
2022-11-22T05:02:44.921Z, 28.06
2022-11-22T05:03:44.913Z, 32.46
2022-11-22T05:04:49.145Z, 37.17
2022-11-22T05:05:45.042Z, 41.55
2022-11-22T05:06:45.005Z, 46.25
2022-11-22T05:07:45.084Z, 50.84
2022-11-22T05:08:45.005Z, 55.24
2022-11-22T05:09:45.003Z, 59.35
2022-11-22T05:10:45.013Z, 67.14
2022-11-22T05:11:45.019Z, 52.73
2022-11-22T05:12:45.037Z, 51.93
2022-11-22T05:13:45.039Z, 53.12
2022-11-22T05:14:45.046Z, 54.53
2022-11-22T05:15:45.100Z, 56.98
2022-11-22T05:16:45.070Z, 60.09
2022-11-22T05:17:45.101Z, 67.50
2022-11-22T05:18:45.160Z, 54.79
2022-11-22T05:19:49.172Z, 53.44
2022-11-22T05:20:45.199Z, 54.23
2022-11-22T05:21:45.207Z, 55.68
2022-11-22T05:22:45.188Z, 58.61
2022-11-22T05:23:45.327Z, 66.23
2022-11-22T05:24:45.216Z, 60.78
2022-11-22T05:25:45.193Z, 53.45
2022-11-22T05:26:45.194Z, 54.28
2022-11-22T05:27:45.361Z, 55.01
2022-11-22T05:28:45.338Z, 55.56
2022-11-22T05:29:45.472Z, 56.50
2022-11-22T05:30:45.362Z, 55.95
2022-11-22T05:31:50.999Z, 54.12
2022-11-22T05:32:45.477Z, 52.69
2022-11-22T05:33:45.476Z, 51.90
2022-11-22T05:34:45.478Z, 51.38
2022-11-22T05:35:45.478Z, 50.73
2022-11-22T05:36:45.482Z, 49.96
2022-11-22T05:37:45.478Z, 49.13
2022-11-22T05:38:45.480Z, 48.46
2022-11-22T05:39:45.482Z, 47.86
2022-11-22T05:40:45.506Z, 47.37
2022-11-22T05:41:45.515Z, 46.85
2022-11-22T05:42:45.484Z, 46.42
2022-11-22T05:43:45.486Z, 46.07
2022-11-22T05:44:45.491Z, 45.64
2022-11-22T05:46:45.498Z, 44.82
2022-11-22T05:47:45.524Z, 44.44
2022-11-22T05:48:45.528Z, 44.06
2022-11-22T05:49:45.523Z, 43.69
2022-11-22T05:50:45.637Z, 43.36
2022-11-22T05:51:45.640Z, 43.02
2022-11-22T05:52:45.637Z, 42.70
2022-11-22T05:53:45.639Z, 42.42
2022-11-22T05:54:45.778Z, 42.14
2022-11-22T05:55:45.668Z, 41.93
2022-11-22T05:56:45.778Z, 41.71
2022-11-22T05:57:45.779Z, 41.49
2022-11-22T05:58:45.785Z, 41.34
2022-11-22T05:59:45.783Z, 41.15
2022-11-22T06:00:45.786Z, 40.99
2022-11-22T06:01:45.820Z, 40.72
2022-11-22T06:02:45.785Z, 40.45
2022-11-22T06:03:45.794Z, 40.13
2022-11-22T06:04:45.789Z, 39.67
2022-11-22T06:05:45.791Z, 39.02
2022-11-22T06:06:45.817Z, 38.15
2022-11-22T06:07:45.860Z, 37.02
2022-11-22T06:08:45.930Z, 35.61
2022-11-22T06:09:45.814Z, 34.12
2022-11-22T06:10:45.824Z, 33.55
2022-11-22T06:11:45.828Z, 39.32
2022-11-22T06:12:45.933Z, 45.04
2022-11-22T06:13:45.937Z, 48.24
2022-11-22T06:14:45.933Z, 46.98
2022-11-22T06:15:45.943Z, 45.89
2022-11-22T06:16:45.941Z, 46.21
2022-11-22T06:17:45.938Z, 45.99
2022-11-22T06:18:45.938Z, 45.76
2022-11-22T06:19:45.942Z, 45.41
2022-11-22T06:20:45.940Z, 45.09
2022-11-22T06:21:45.943Z, 44.86
2022-11-22T06:22:45.978Z, 44.66
2022-11-22T06:23:46.084Z, 44.44
2022-11-22T06:24:46.084Z, 44.25
2022-11-22T06:25:46.084Z, 44.08
2022-11-22T06:26:46.086Z, 43.90
2022-11-22T06:27:46.085Z, 43.73
2022-11-22T06:28:46.085Z, 43.54
2022-11-22T06:29:46.095Z, 43.37
2022-11-22T06:30:46.089Z, 43.21
2022-11-22T06:31:46.092Z, 43.06
2022-11-22T06:32:46.117Z, 42.89
2022-11-22T06:33:46.238Z, 42.76
2022-11-22T06:34:46.126Z, 42.64
2022-11-22T06:35:46.229Z, 42.48
2022-11-22T06:36:46.235Z, 42.34
2022-11-22T06:37:46.235Z, 42.19
2022-11-22T06:38:46.232Z, 42.03
2022-11-22T06:39:46.242Z, 41.86
2022-11-22T06:40:46.238Z, 41.73
2022-11-22T06:41:46.237Z, 41.57
2022-11-22T06:42:46.233Z, 41.45
2022-11-22T06:43:49.052Z, 41.30
2022-11-22T06:44:46.245Z, 41.15
2022-11-22T06:45:46.243Z, 41.05
2022-11-22T06:46:46.236Z, 40.91
2022-11-22T06:47:46.272Z, 40.80
2022-11-22T06:48:46.269Z, 40.67
2022-11-22T06:49:46.295Z, 40.54
2022-11-22T06:50:46.262Z, 40.42
2022-11-22T06:51:46.374Z, 40.29
2022-11-22T06:52:46.270Z, 40.21
2022-11-22T06:53:48.151Z, 40.12
2022-11-22T06:54:46.378Z, 39.98
2022-11-22T06:55:50.892Z, 39.88
2022-11-22T06:56:46.380Z, 39.79
2022-11-22T06:57:46.381Z, 39.69
2022-11-22T06:58:46.382Z, 39.56
2022-11-22T06:59:46.377Z, 39.46
2022-11-22T07:00:46.420Z, 39.39
2022-11-22T07:01:46.469Z, 39.31
2022-11-22T07:02:46.478Z, 39.24
2022-11-22T07:03:46.476Z, 39.10
2022-11-22T07:05:02.679Z, 38.99
2022-11-22T07:05:46.475Z, 38.94
2022-11-22T07:06:46.472Z, 38.88
2022-11-22T07:07:46.522Z, 38.77
2022-11-22T07:08:46.478Z, 38.69
2022-11-22T07:09:46.480Z, 38.62
2022-11-22T07:10:46.476Z, 38.56
2022-11-22T07:11:46.650Z, 38.51
2022-11-22T07:12:46.648Z, 38.42
2022-11-22T07:13:46.509Z, 38.33
2022-11-22T07:14:46.505Z, 38.26
2022-11-22T07:15:46.483Z, 38.13
2022-11-22T07:16:46.661Z, 38.05
2022-11-22T07:17:46.674Z, 38.01
2022-11-22T07:18:46.676Z, 37.98
2022-11-22T07:19:46.656Z, 37.89
2022-11-22T07:20:46.660Z, 37.83
2022-11-22T07:21:46.830Z, 37.73
2022-11-22T07:22:46.691Z, 37.67
2022-11-22T07:23:46.701Z, 37.56
2022-11-22T07:24:46.682Z, 37.50
2022-11-22T07:25:46.686Z, 37.47
2022-11-22T07:26:46.691Z, 37.42
2022-11-22T07:27:46.846Z, 37.37
2022-11-22T07:28:46.832Z, 37.34
2022-11-22T07:29:46.834Z, 37.25
2022-11-22T07:30:46.845Z, 37.21
2022-11-22T07:31:46.833Z, 37.15
2022-11-22T07:32:46.857Z, 37.07
2022-11-22T07:33:46.846Z, 37.00
2022-11-22T07:34:46.844Z, 36.96
2022-11-22T07:35:46.837Z, 36.91
2022-11-22T07:36:46.842Z, 36.87
2022-11-22T07:37:46.999Z, 36.83
2022-11-22T07:38:47.016Z, 36.75
2022-11-22T07:39:47.005Z, 36.73
2022-11-22T07:40:47.008Z, 36.67
2022-11-22T07:41:47.017Z, 36.63
2022-11-22T07:42:47.018Z, 36.58
2022-11-22T07:43:47.312Z, 36.50
2022-11-22T07:44:47.014Z, 36.44
2022-11-22T07:45:47.026Z, 36.40
2022-11-22T07:46:47.018Z, 36.39
2022-11-22T07:47:47.022Z, 36.35
2022-11-22T07:48:47.016Z, 36.30
2022-11-22T07:49:47.010Z, 36.27
2022-11-22T07:50:47.195Z, 36.19
2022-11-22T07:51:47.059Z, 36.11
2022-11-22T07:52:47.193Z, 36.14
2022-11-22T07:53:47.051Z, 36.09
2022-11-22T07:54:47.192Z, 36.04
2022-11-22T07:55:47.189Z, 36.01
2022-11-22T07:56:47.191Z, 35.98
2022-11-22T07:57:47.199Z, 35.94
2022-11-22T07:58:47.195Z, 35.92
2022-11-22T07:59:47.200Z, 35.84
2022-11-22T08:00:47.194Z, 35.80
2022-11-22T08:01:47.392Z, 35.75
2022-11-22T08:02:47.200Z, 35.77
2022-11-22T08:03:47.201Z, 35.76
2022-11-22T08:04:47.229Z, 35.69
2022-11-22T08:05:47.226Z, 35.66
2022-11-22T08:06:47.227Z, 35.61
2022-11-22T08:07:47.264Z, 35.58
2022-11-22T08:08:47.210Z, 35.52
2022-11-22T08:09:47.211Z, 35.47
2022-11-22T08:10:47.210Z, 35.40
2022-11-22T08:11:47.374Z, 35.39
2022-11-22T08:12:47.377Z, 35.36
2022-11-22T08:13:47.374Z, 35.33
2022-11-22T08:14:47.380Z, 35.25
2022-11-22T08:15:47.375Z, 35.24
2022-11-22T08:16:47.378Z, 35.23
2022-11-22T08:17:47.388Z, 35.18
2022-11-22T08:18:47.387Z, 35.15
2022-11-22T08:19:47.385Z, 35.13
2022-11-22T08:20:47.552Z, 35.09
2022-11-22T08:21:47.416Z, 35.07
2022-11-22T08:22:47.409Z, 35.06
2022-11-22T08:23:47.433Z, 35.03
2022-11-22T08:24:47.399Z, 35.00
2022-11-22T08:25:47.386Z, 34.95
2022-11-22T08:26:47.557Z, 34.93
2022-11-22T08:27:47.559Z, 34.89
2022-11-22T08:28:47.556Z, 34.89
2022-11-22T08:29:47.555Z, 34.86
2022-11-22T08:30:47.562Z, 34.80
2022-11-22T08:31:47.565Z, 34.79
2022-11-22T08:32:47.561Z, 34.76
2022-11-22T08:33:47.564Z, 34.73
2022-11-22T08:34:47.693Z, 34.69
2022-11-22T08:35:47.591Z, 34.69
2022-11-22T08:36:47.591Z, 34.64
2022-11-22T08:37:47.570Z, 34.61
2022-11-22T08:38:47.595Z, 34.60
2022-11-22T08:39:47.737Z, 34.55
2022-11-22T08:40:47.747Z, 34.55
2022-11-22T08:41:47.743Z, 34.53
2022-11-22T08:42:47.597Z, 34.48
2022-11-22T08:43:47.744Z, 34.45
2022-11-22T08:44:47.739Z, 34.45
2022-11-22T08:45:47.741Z, 34.37
2022-11-22T08:46:47.742Z, 34.35
2022-11-22T08:47:47.749Z, 34.33
2022-11-22T08:48:47.747Z, 34.35
2022-11-22T08:49:47.745Z, 34.36
2022-11-22T08:50:47.906Z, 34.29
2022-11-22T08:51:47.786Z, 34.25
2022-11-22T08:52:47.789Z, 34.19
2022-11-22T08:53:47.911Z, 34.20
2022-11-22T08:54:47.775Z, 34.18
2022-11-22T08:55:47.787Z, 34.21
2022-11-22T08:56:47.778Z, 34.18
2022-11-22T08:57:47.922Z, 34.14
2022-11-22T08:58:47.990Z, 34.11
2022-11-22T08:59:47.989Z, 34.10
2022-11-22T09:00:47.932Z, 34.07
2022-11-22T09:01:47.994Z, 34.04
2022-11-22T09:02:47.931Z, 34.01
2022-11-22T09:03:47.929Z, 34.01
2022-11-22T09:04:47.927Z, 33.96
2022-11-22T09:08:55.377Z, 33.86
2022-11-22T09:09:48.272Z, 33.84
2022-11-22T09:10:48.098Z, 33.81
2022-11-22T09:11:48.108Z, 33.78
2022-11-22T09:12:48.107Z, 33.76
2022-11-22T09:13:48.112Z, 33.76
2022-11-22T09:14:48.112Z, 33.76
2022-11-22T09:15:48.110Z, 33.78
2022-11-22T09:16:48.111Z, 33.73
2022-11-22T09:17:48.111Z, 33.71
2022-11-22T09:18:48.134Z, 33.65
2022-11-22T09:19:48.109Z, 33.60
2022-11-22T09:20:48.111Z, 33.58
2022-11-22T09:21:48.111Z, 33.60
2022-11-22T09:22:48.118Z, 33.59
2022-11-22T09:23:48.117Z, 33.54
2022-11-22T09:24:48.117Z, 33.54
2022-11-22T09:25:48.292Z, 33.55
2022-11-22T09:26:48.295Z, 33.54
2022-11-22T09:27:48.290Z, 33.51
2022-11-22T09:28:48.287Z, 33.51
2022-11-22T09:29:48.296Z, 33.45
2022-11-22T09:30:48.305Z, 33.38
2022-11-22T09:31:48.286Z, 33.40
2022-11-22T09:32:48.296Z, 33.34
2022-11-22T09:33:48.297Z, 33.32
2022-11-22T09:34:48.299Z, 33.35
2022-11-22T09:35:48.295Z, 33.33
2022-11-22T09:36:48.302Z, 33.35
2022-11-22T09:37:48.293Z, 33.33
2022-11-22T09:38:48.298Z, 33.27
2022-11-22T09:39:48.734Z, 33.27
2022-11-22T09:40:48.493Z, 33.24
2022-11-22T09:41:48.472Z, 33.20
2022-11-22T09:42:48.474Z, 33.22
2022-11-22T09:43:48.476Z, 33.19
2022-11-22T09:44:48.462Z, 33.21
2022-11-22T09:45:48.476Z, 33.16
2022-11-22T09:46:48.476Z, 33.14
2022-11-22T09:47:48.480Z, 33.14
2022-11-22T09:48:48.479Z, 33.09
2022-11-22T09:49:48.482Z, 33.11
2022-11-22T09:50:48.486Z, 33.08
2022-11-22T09:51:48.475Z, 33.05
2022-11-22T09:52:48.511Z, 33.02
2022-11-22T09:53:48.505Z, 33.02
2022-11-22T09:54:48.656Z, 32.99
2022-11-22T09:55:48.513Z, 32.98
2022-11-22T09:56:48.509Z, 32.96
2022-11-22T09:57:48.654Z, 32.95
2022-11-22T09:58:48.659Z, 32.91
2022-11-22T09:59:48.655Z, 32.91
2022-11-22T10:00:52.245Z, 32.88
2022-11-22T10:01:48.710Z, 32.90
2022-11-22T10:02:59.811Z, 32.87
2022-11-22T10:03:48.667Z, 32.81
2022-11-22T10:04:48.680Z, 32.81
2022-11-22T10:05:48.661Z, 32.80
2022-11-22T10:06:48.667Z, 32.76
2022-11-22T10:07:48.752Z, 32.75
2022-11-22T10:08:48.664Z, 32.74
2022-11-22T10:09:48.828Z, 32.72
2022-11-22T10:10:48.827Z, 32.71
2022-11-22T10:11:48.694Z, 32.68
2022-11-22T10:12:48.688Z, 32.68
2022-11-22T10:13:48.828Z, 32.65
2022-11-22T10:14:48.846Z, 32.63
2022-11-22T10:15:48.838Z, 32.61
2022-11-22T10:16:48.843Z, 32.59
2022-11-22T10:17:48.835Z, 32.60
2022-11-22T10:18:48.839Z, 32.59
2022-11-22T10:19:48.838Z, 32.55
2022-11-22T10:20:49.189Z, 32.53
2022-11-22T10:21:48.831Z, 32.54
2022-11-22T10:22:48.871Z, 32.53
2022-11-22T10:23:49.005Z, 32.54
2022-11-22T10:24:48.874Z, 32.55
2022-11-22T10:25:49.020Z, 32.49
2022-11-22T10:26:48.882Z, 32.46
2022-11-22T10:27:48.886Z, 32.48
2022-11-22T10:28:48.871Z, 32.49
2022-11-22T10:29:49.018Z, 32.46
2022-11-22T10:30:49.017Z, 32.39
2022-11-22T10:31:49.014Z, 32.35
2022-11-22T10:32:49.033Z, 32.37
2022-11-22T10:33:49.057Z, 32.36
2022-11-22T10:34:49.021Z, 32.36
2022-11-22T10:35:49.016Z, 32.36
2022-11-22T10:36:49.023Z, 32.35
2022-11-22T10:37:49.029Z, 32.36
2022-11-22T10:38:49.028Z, 32.33
2022-11-22T10:39:49.058Z, 32.35
2022-11-22T10:40:49.022Z, 32.34
2022-11-22T10:41:49.218Z, 32.28
2022-11-22T10:42:49.198Z, 32.27
2022-11-22T10:43:49.198Z, 32.28
2022-11-22T10:44:49.189Z, 32.25
2022-11-22T10:45:49.194Z, 32.19
2022-11-22T10:46:53.666Z, 32.22
2022-11-22T10:47:49.208Z, 32.16
2022-11-22T10:48:49.209Z, 32.20
2022-11-22T10:49:49.202Z, 32.16
2022-11-22T10:50:49.206Z, 32.12
2022-11-22T10:51:49.205Z, 32.14
2022-11-22T10:52:49.203Z, 32.12
2022-11-22T10:53:49.280Z, 32.11
2022-11-22T10:54:49.266Z, 32.09
2022-11-22T10:55:49.234Z, 32.07
2022-11-22T10:56:49.271Z, 32.08
2022-11-22T10:57:49.259Z, 32.08
2022-11-22T10:58:49.270Z, 32.05
2022-11-22T10:59:49.277Z, 32.02
2022-11-22T11:00:49.347Z, 31.98
2022-11-22T11:01:49.276Z, 32.81
2022-11-22T11:02:49.277Z, 34.31
2022-11-22T11:03:49.286Z, 42.47
2022-11-22T11:04:49.303Z, 45.56
2022-11-22T11:06:21.191Z, 43.32
2022-11-22T11:07:11.060Z, 40.69
2022-11-22T11:07:49.364Z, 38.69
2022-11-22T11:09:23.389Z, 37.25
2022-11-22T11:10:13.596Z, 35.80
2022-11-22T11:10:49.414Z, 33.99
2022-11-22T11:11:49.291Z, 32.46
2022-11-22T11:12:49.315Z, 31.26
2022-11-22T11:13:49.326Z, 29.90
2022-11-22T11:14:49.365Z, 28.52
2022-11-22T11:15:54.453Z, 29.16
2022-11-22T11:16:49.417Z, 34.25
2022-11-22T11:17:49.436Z, 41.75
2022-11-22T11:18:49.413Z, 45.96
2022-11-22T11:19:49.409Z, 46.98
2022-11-22T11:20:49.414Z, 46.84
2022-11-22T11:21:49.411Z, 46.53
2022-11-22T11:23:13.601Z, 46.18
2022-11-22T11:23:49.528Z, 45.87
2022-11-22T11:24:49.504Z, 45.54
2022-11-22T11:25:49.495Z, 45.30
2022-11-22T11:26:49.507Z, 45.06
2022-11-22T11:27:49.499Z, 44.77
2022-11-22T11:28:49.583Z, 44.54
2022-11-22T11:29:49.568Z, 44.34
2022-11-22T11:30:49.560Z, 44.14
2022-11-22T11:31:49.559Z, 43.96
2022-11-22T11:32:49.561Z, 43.74
2022-11-22T11:33:49.565Z, 43.53
2022-11-22T11:34:49.580Z, 43.35
2022-11-22T11:35:49.603Z, 43.18
2022-11-22T11:36:49.620Z, 42.99
2022-11-22T11:37:49.680Z, 42.79
2022-11-22T11:38:49.659Z, 42.62
2022-11-22T11:39:49.718Z, 42.45
2022-11-22T11:40:49.664Z, 42.30
2022-11-22T11:41:49.755Z, 42.13
2022-11-22T11:42:49.719Z, 41.98
2022-11-22T11:43:49.713Z, 41.82
2022-11-22T11:44:49.712Z, 41.67
2022-11-22T11:45:49.714Z, 41.50
2022-11-22T11:46:49.745Z, 41.34
2022-11-22T11:47:49.747Z, 41.17
2022-11-22T11:48:49.821Z, 41.05
2022-11-22T11:49:49.811Z, 40.93
2022-11-22T11:50:49.813Z, 40.78
2022-11-22T11:51:49.807Z, 40.67
2022-11-22T11:52:49.872Z, 40.54
2022-11-22T11:53:49.840Z, 40.41
2022-11-22T11:54:49.845Z, 40.32
2022-11-22T11:55:49.845Z, 40.17
2022-11-22T11:56:49.859Z, 40.05
2022-11-22T11:57:49.866Z, 39.95
2022-11-22T11:58:49.882Z, 39.80
2022-11-22T11:59:49.891Z, 39.69
2022-11-22T12:00:49.890Z, 39.55
2022-11-22T12:01:50.619Z, 39.41
2022-11-22T12:02:49.933Z, 39.31
2022-11-22T12:03:49.979Z, 39.20
2022-11-22T12:04:49.968Z, 39.09
2022-11-22T12:05:49.976Z, 39.00
2022-11-22T12:06:50.018Z, 38.88
2022-11-22T12:07:50.076Z, 38.78
2022-11-22T12:08:50.015Z, 38.66
2022-11-22T12:09:50.029Z, 38.54
2022-11-22T12:10:50.047Z, 38.45
2022-11-22T12:11:50.120Z, 38.36
2022-11-22T12:12:50.099Z, 38.28
2022-11-22T12:14:18.474Z, 38.19
2022-11-22T12:15:10.346Z, 38.07
2022-11-22T12:15:50.144Z, 37.99
2022-11-22T12:16:50.177Z, 37.91
2022-11-22T12:17:50.210Z, 37.80
2022-11-22T12:18:50.198Z, 37.72
2022-11-22T12:19:50.171Z, 37.63
2022-11-22T12:20:50.159Z, 37.52
2022-11-22T12:21:50.162Z, 37.44
2022-11-22T12:22:50.919Z, 37.33
2022-11-22T12:23:51.150Z, 37.24
2022-11-22T12:25:50.273Z, 37.10
2022-11-22T12:26:50.264Z, 37.02
2022-11-22T12:27:50.257Z, 36.96
2022-11-22T12:28:50.306Z, 36.86
2022-11-22T12:29:50.257Z, 36.79
2022-11-22T12:30:50.267Z, 36.67
2022-11-22T12:31:50.341Z, 36.61
2022-11-22T12:32:50.564Z, 36.55
2022-11-22T12:33:50.384Z, 36.48